createdAt,value
2016-12-30T00:00:00.754Z,36.19
2016-12-30T00:00:41.370Z,36.09
2016-12-30T00:01:21.956Z,36.38
2016-12-30T00:02:02.567Z,36.38
2016-12-30T00:02:43.146Z,36.19
2016-12-30T00:03:23.731Z,36.19
2016-12-30T00:04:04.344Z,36.29
2016-12-30T00:04:44.937Z,36.29
2016-12-30T00:05:25.523Z,36.19
2016-12-30T00:06:06.100Z,36.19
2016-12-30T00:06:46.690Z,36.38
2016-12-30T00:07:27.267Z,36.38
2016-12-30T00:08:07.859Z,36.19
2016-12-30T00:08:48.450Z,36.48
2016-12-30T00:09:29.041Z,36.19
2016-12-30T00:10:09.629Z,35.8
2016-12-30T00:10:50.211Z,35.9
2016-12-30T00:11:30.794Z,35.42
2016-12-30T00:12:11.394Z,35.13
2016-12-30T00:12:51.975Z,34.84
2016-12-30T00:13:32.552Z,34.64
2016-12-30T00:14:13.131Z,34.45
2016-12-30T00:14:53.717Z,34.55
2016-12-30T00:15:34.304Z,34.64
2016-12-30T00:16:14.893Z,34.64
2016-12-30T00:16:55.510Z,34.45
2016-12-30T00:17:36.099Z,34.45
2016-12-30T00:18:16.671Z,34.45
2016-12-30T00:18:57.257Z,34.55
2016-12-30T00:19:37.840Z,34.94
2016-12-30T00:20:18.432Z,34.74
2016-12-30T00:20:59.015Z,34.84
2016-12-30T00:21:39.593Z,35.03
2016-12-30T00:22:20.181Z,35.22
2016-12-30T00:23:00.766Z,35.32
2016-12-30T00:23:41.354Z,35.71
2016-12-30T00:24:21.940Z,35.42
2016-12-30T00:25:02.540Z,35.61
2016-12-30T00:25:43.112Z,35.9
2016-12-30T00:26:23.697Z,35.61
2016-12-30T00:27:04.299Z,35.8
2016-12-30T00:27:44.890Z,35.61
2016-12-30T00:28:25.469Z,35.52
2016-12-30T00:29:06.060Z,35.9
2016-12-30T00:29:46.657Z,35.61
2016-12-30T00:30:27.243Z,35.52
2016-12-30T00:31:07.842Z,35.42
2016-12-30T00:31:48.428Z,35.61
2016-12-30T00:32:29.022Z,35.61
2016-12-30T00:33:09.611Z,35.42
2016-12-30T00:33:50.202Z,35.61
2016-12-30T00:34:30.788Z,35.9
2016-12-30T00:35:11.370Z,35.71
2016-12-30T00:35:51.953Z,35.8
2016-12-30T00:36:32.542Z,35.8
2016-12-30T00:37:13.115Z,35.71
2016-12-30T00:37:53.707Z,35.52
2016-12-30T00:38:34.285Z,35.71
2016-12-30T00:39:14.868Z,35.32
2016-12-30T00:39:55.480Z,35.9
2016-12-30T00:40:36.074Z,35.61
2016-12-30T00:41:16.681Z,35.32
2016-12-30T00:41:57.285Z,35.71
2016-12-30T00:42:37.878Z,35.71
2016-12-30T00:43:18.486Z,35.61
2016-12-30T00:43:59.066Z,35.32
2016-12-30T00:44:39.663Z,35.42
2016-12-30T00:45:20.242Z,36
2016-12-30T00:46:00.824Z,35.8
2016-12-30T00:46:41.437Z,35.88
2016-12-30T00:47:22.019Z,35.8
2016-12-30T00:48:02.613Z,35.71
2016-12-30T00:48:43.195Z,35.9
2016-12-30T00:49:23.775Z,35.8
2016-12-30T00:50:04.362Z,35.61
2016-12-30T00:50:44.949Z,35.9
2016-12-30T00:51:25.537Z,36
2016-12-30T00:52:06.124Z,35.8
2016-12-30T00:52:46.704Z,35.61
2016-12-30T00:53:27.280Z,35.71
2016-12-30T00:54:07.879Z,35.9
2016-12-30T00:54:48.470Z,35.61
2016-12-30T00:55:29.048Z,35.9
2016-12-30T00:56:09.624Z,35.61
2016-12-30T00:56:50.207Z,35.61
2016-12-30T00:57:30.809Z,35.61
2016-12-30T00:58:11.404Z,35.9
2016-12-30T00:58:51.981Z,35.8
2016-12-30T00:59:32.559Z,35.8
2016-12-30T01:00:13.149Z,36
2016-12-30T01:00:53.722Z,36
2016-12-30T01:01:34.312Z,36
2016-12-30T01:02:14.899Z,35.61
2016-12-30T01:02:55.490Z,35.9
2016-12-30T01:03:36.082Z,36
2016-12-30T01:04:16.677Z,35.9
2016-12-30T01:04:57.306Z,35.8
2016-12-30T01:05:37.898Z,35.8
2016-12-30T01:06:18.492Z,35.61
2016-12-30T01:06:59.092Z,35.9
2016-12-30T01:07:39.677Z,35.8
2016-12-30T01:08:20.263Z,35.71
2016-12-30T01:09:00.846Z,36
2016-12-30T01:09:41.446Z,35.71
2016-12-30T01:10:22.034Z,35.8
2016-12-30T01:11:02.646Z,35.9
2016-12-30T01:11:43.228Z,35.8
2016-12-30T01:12:23.811Z,36
2016-12-30T01:13:04.410Z,35.8
2016-12-30T01:13:45.002Z,35.32
2016-12-30T01:14:25.587Z,35.61
2016-12-30T01:15:06.177Z,35.71
2016-12-30T01:15:46.773Z,35.71
2016-12-30T01:16:27.368Z,35.8
2016-12-30T01:17:07.947Z,35.71
2016-12-30T01:17:48.529Z,36
2016-12-30T01:18:29.118Z,35.9
2016-12-30T01:19:09.699Z,36
2016-12-30T01:19:50.302Z,35.9
2016-12-30T01:20:30.862Z,36
2016-12-30T01:21:11.436Z,35.9
2016-12-30T01:21:52.022Z,35.8
2016-12-30T01:22:32.603Z,36
2016-12-30T01:23:13.190Z,35.71
2016-12-30T01:23:53.783Z,35.9
2016-12-30T01:24:34.376Z,35.8
2016-12-30T01:25:14.959Z,35.78
2016-12-30T01:25:55.556Z,35.71
2016-12-30T01:26:36.137Z,36
2016-12-30T01:27:16.718Z,35.9
2016-12-30T01:27:57.300Z,35.8
2016-12-30T01:28:37.888Z,35.8
2016-12-30T01:29:18.480Z,35.9
2016-12-30T01:29:59.064Z,35.71
2016-12-30T01:30:39.678Z,35.71
2016-12-30T01:31:20.267Z,35.61
2016-12-30T01:32:00.861Z,35.9
2016-12-30T01:32:41.455Z,36
2016-12-30T01:33:22.053Z,35.59
2016-12-30T01:34:02.667Z,35.88
2016-12-30T01:34:43.253Z,35.8
2016-12-30T01:35:23.835Z,35.8
2016-12-30T01:36:04.420Z,35.8
2016-12-30T01:36:45.003Z,35.71
2016-12-30T01:37:25.592Z,35.9
2016-12-30T01:38:06.177Z,35.61
2016-12-30T01:38:46.792Z,35.71
2016-12-30T01:39:27.395Z,35.9
2016-12-30T01:40:08.003Z,35.61
2016-12-30T01:40:48.595Z,36
2016-12-30T01:41:29.176Z,35.9
2016-12-30T01:42:09.765Z,35.9
2016-12-30T01:42:50.346Z,35.88
2016-12-30T01:43:30.931Z,35.9
2016-12-30T01:44:11.524Z,35.69
2016-12-30T01:44:52.114Z,35.88
2016-12-30T01:45:32.704Z,35.8
2016-12-30T01:46:13.285Z,35.71
2016-12-30T01:46:53.878Z,35.88
2016-12-30T01:47:34.488Z,35.8
2016-12-30T01:48:15.103Z,36
2016-12-30T01:48:55.678Z,35.8
2016-12-30T01:49:36.263Z,35.8
2016-12-30T01:50:16.842Z,35.8
2016-12-30T01:50:57.419Z,35.52
2016-12-30T01:51:38.013Z,35.78
2016-12-30T01:52:18.597Z,35.59
2016-12-30T01:52:59.182Z,35.71
2016-12-30T01:53:39.766Z,36
2016-12-30T01:54:20.365Z,35.9
2016-12-30T01:55:00.958Z,35.61
2016-12-30T01:55:41.541Z,35.61
2016-12-30T01:56:22.130Z,35.61
2016-12-30T01:57:02.728Z,35.8
2016-12-30T01:57:43.313Z,36
2016-12-30T01:58:23.891Z,35.9
2016-12-30T01:59:04.474Z,35.71
2016-12-30T01:59:45.070Z,35.59
2016-12-30T02:00:25.658Z,35.59
2016-12-30T02:01:06.233Z,35.61
2016-12-30T02:01:46.845Z,35.8
2016-12-30T02:02:27.417Z,35.9
2016-12-30T02:03:08.004Z,35.9
2016-12-30T02:03:48.583Z,35.59
2016-12-30T02:04:29.172Z,35.69
2016-12-30T02:05:09.781Z,35.8
2016-12-30T02:05:50.371Z,36
2016-12-30T02:06:30.944Z,35.8
2016-12-30T02:07:11.537Z,35.59
2016-12-30T02:07:52.122Z,35.69
2016-12-30T02:08:32.713Z,35.9
2016-12-30T02:09:13.302Z,35.9
2016-12-30T02:09:53.883Z,35.9
2016-12-30T02:10:34.472Z,35.71
2016-12-30T02:11:15.060Z,35.61
2016-12-30T02:11:55.647Z,35.61
2016-12-30T02:12:36.236Z,35.88
2016-12-30T02:13:16.840Z,35.69
2016-12-30T02:13:57.433Z,35.8
2016-12-30T02:14:38.017Z,35.71
2016-12-30T02:15:18.598Z,35.5
2016-12-30T02:15:59.182Z,36
2016-12-30T02:16:39.767Z,35.5
2016-12-30T02:17:20.366Z,35.8
2016-12-30T02:18:00.948Z,35.71
2016-12-30T02:18:41.538Z,35.52
2016-12-30T02:19:22.120Z,35.71
2016-12-30T02:20:02.705Z,35.69
2016-12-30T02:20:43.294Z,35.8
2016-12-30T02:21:23.879Z,35.32
2016-12-30T02:22:04.503Z,35.8
2016-12-30T02:22:45.094Z,35.52
2016-12-30T02:23:25.697Z,35.71
2016-12-30T02:24:06.296Z,35.8
2016-12-30T02:24:46.886Z,35.71
2016-12-30T02:25:27.464Z,35.52
2016-12-30T02:26:08.063Z,35.78
2016-12-30T02:26:48.649Z,35.32
2016-12-30T02:27:29.235Z,35.42
2016-12-30T02:28:09.807Z,35.5
2016-12-30T02:28:50.396Z,35.3
2016-12-30T02:29:30.986Z,35.4
2016-12-30T02:30:11.577Z,35.32
2016-12-30T02:30:52.196Z,35.4
2016-12-30T02:31:32.783Z,35.42
2016-12-30T02:32:13.355Z,35.59
2016-12-30T02:32:53.960Z,35.52
2016-12-30T02:33:34.547Z,35.61
2016-12-30T02:34:15.138Z,35.5
2016-12-30T02:34:55.728Z,35.32
2016-12-30T02:35:36.322Z,35.9
2016-12-30T02:36:16.898Z,35.52
2016-12-30T02:36:57.486Z,35.59
2016-12-30T02:37:38.077Z,35.59
2016-12-30T02:38:18.660Z,35.61
2016-12-30T02:38:59.309Z,35.5
2016-12-30T02:39:39.903Z,35.52
2016-12-30T02:40:20.507Z,35.52
2016-12-30T02:41:01.096Z,35.61
2016-12-30T02:41:41.687Z,35.61
2016-12-30T02:42:22.269Z,35.59
2016-12-30T02:43:02.854Z,35.52
2016-12-30T02:43:43.446Z,35.71
2016-12-30T02:44:24.031Z,35.8
2016-12-30T02:45:04.612Z,35.52
2016-12-30T02:45:45.190Z,35.52
2016-12-30T02:46:25.772Z,35.59
2016-12-30T02:47:06.366Z,35.5
2016-12-30T02:47:46.969Z,35.5
2016-12-30T02:48:27.551Z,35.61
2016-12-30T02:49:08.134Z,35.59
2016-12-30T02:49:48.723Z,35.59
2016-12-30T02:50:29.340Z,35.4
2016-12-30T02:51:09.941Z,35.61
2016-12-30T02:51:50.529Z,35.5
2016-12-30T02:52:31.103Z,35.4
2016-12-30T02:53:11.685Z,35.59
2016-12-30T02:53:52.283Z,35.4
2016-12-30T02:54:32.855Z,35.61
2016-12-30T02:55:13.440Z,35.5
2016-12-30T02:55:54.037Z,35.59
2016-12-30T02:56:34.629Z,35.5
2016-12-30T02:57:15.220Z,35.59
2016-12-30T02:57:55.812Z,35.5
2016-12-30T02:58:36.395Z,35.5
2016-12-30T02:59:16.991Z,35.59
2016-12-30T02:59:57.571Z,35.5
2016-12-30T03:00:38.155Z,35.61
2016-12-30T03:01:18.746Z,35.4
2016-12-30T03:01:59.318Z,35.4
2016-12-30T03:02:39.900Z,35.59
2016-12-30T03:03:20.490Z,35.4
2016-12-30T03:04:01.095Z,35.5
2016-12-30T03:04:41.699Z,35.5
2016-12-30T03:05:22.298Z,35.4
2016-12-30T03:06:02.883Z,35.59
2016-12-30T03:06:43.479Z,35.59
2016-12-30T03:07:24.056Z,35.59
2016-12-30T03:08:04.661Z,35.59
2016-12-30T03:08:45.241Z,35.59
2016-12-30T03:09:25.827Z,35.3
2016-12-30T03:10:06.427Z,35.59
2016-12-30T03:10:47.010Z,35.5
2016-12-30T03:11:27.598Z,35.5
2016-12-30T03:12:08.191Z,35.5
2016-12-30T03:12:48.776Z,35.59
2016-12-30T03:13:29.368Z,35.59
2016-12-30T03:14:09.965Z,35.5
2016-12-30T03:14:50.555Z,35.21
2016-12-30T03:15:31.158Z,35.59
2016-12-30T03:16:11.734Z,35.59
2016-12-30T03:16:52.320Z,35.59
2016-12-30T03:17:32.908Z,35.4
2016-12-30T03:18:13.510Z,35.3
2016-12-30T03:18:54.098Z,35.59
2016-12-30T03:19:34.675Z,35.4
2016-12-30T03:20:15.264Z,35.21
2016-12-30T03:20:55.855Z,35.11
2016-12-30T03:21:36.435Z,35.3
2016-12-30T03:22:17.021Z,35.3
2016-12-30T03:22:57.603Z,35.59
2016-12-30T03:23:38.180Z,35.59
2016-12-30T03:24:18.780Z,35.59
2016-12-30T03:24:59.363Z,35.5
2016-12-30T03:25:39.959Z,35.11
2016-12-30T03:26:20.545Z,35.02
2016-12-30T03:27:01.137Z,35.11
2016-12-30T03:27:41.721Z,35.78
2016-12-30T03:28:22.320Z,35.4
2016-12-30T03:29:02.903Z,35.59
2016-12-30T03:29:43.490Z,35.21
2016-12-30T03:30:24.078Z,35.11
2016-12-30T03:31:04.679Z,35.3
2016-12-30T03:31:45.255Z,35.11
2016-12-30T03:32:25.851Z,35.3
2016-12-30T03:33:06.423Z,35.5
2016-12-30T03:33:47.008Z,35.5
2016-12-30T03:34:27.595Z,35.11
2016-12-30T03:35:08.182Z,35.02
2016-12-30T03:35:48.760Z,35.5
2016-12-30T03:36:29.357Z,35.4
2016-12-30T03:37:09.980Z,35.59
2016-12-30T03:37:50.560Z,35.69
2016-12-30T03:38:31.163Z,35.02
2016-12-30T03:39:11.772Z,35.3
2016-12-30T03:39:52.365Z,35.02
2016-12-30T03:40:32.940Z,35.11
2016-12-30T03:41:13.519Z,35.5
2016-12-30T03:41:54.110Z,35.4
2016-12-30T03:42:34.692Z,35.4
2016-12-30T03:43:15.279Z,35.4
2016-12-30T03:43:55.873Z,35.4
2016-12-30T03:44:36.488Z,35.11
2016-12-30T03:45:17.085Z,35.5
2016-12-30T03:45:57.678Z,35.4
2016-12-30T03:46:38.276Z,35.3
2016-12-30T03:47:18.863Z,35.3
2016-12-30T03:47:59.446Z,35.3
2016-12-30T03:48:40.034Z,35.11
2016-12-30T03:49:20.643Z,35.4
2016-12-30T03:50:01.260Z,35.5
2016-12-30T03:50:41.842Z,35.3
2016-12-30T03:51:22.439Z,35.21
2016-12-30T03:52:03.045Z,35.3
2016-12-30T03:52:43.642Z,35.5
2016-12-30T03:53:24.249Z,35.5
2016-12-30T03:54:04.848Z,35.5
2016-12-30T03:54:45.449Z,35.02
2016-12-30T03:55:26.055Z,35.11
2016-12-30T03:56:06.656Z,35.4
2016-12-30T03:56:47.258Z,35.21
2016-12-30T03:57:27.857Z,35.21
2016-12-30T03:58:08.473Z,35.5
2016-12-30T03:58:49.064Z,35.5
2016-12-30T03:59:29.666Z,35.21
2016-12-30T04:00:10.263Z,35.4
2016-12-30T04:00:50.870Z,35.59
2016-12-30T04:01:31.468Z,35.5
2016-12-30T04:02:12.074Z,35.4
2016-12-30T04:02:52.676Z,35.21
2016-12-30T04:03:33.276Z,35.59
2016-12-30T04:04:13.877Z,35.3
2016-12-30T04:04:54.477Z,35.11
2016-12-30T04:05:35.056Z,35.4
2016-12-30T04:06:15.637Z,35.11
2016-12-30T04:06:56.238Z,35.3
2016-12-30T04:07:36.826Z,35.11
2016-12-30T04:08:17.441Z,35.11
2016-12-30T04:08:58.032Z,35.5
2016-12-30T04:09:38.633Z,35.4
2016-12-30T04:10:19.238Z,35.5
2016-12-30T04:10:59.801Z,35.4
2016-12-30T04:11:40.400Z,35.5
2016-12-30T04:12:21.006Z,35.02
2016-12-30T04:13:01.605Z,35.3
2016-12-30T04:13:42.195Z,35.11
2016-12-30T04:14:22.782Z,35.11
2016-12-30T04:15:03.377Z,35.11
2016-12-30T04:15:43.992Z,35.4
2016-12-30T04:16:24.615Z,35.3
2016-12-30T04:17:05.204Z,35.3
2016-12-30T04:17:45.804Z,35.02
2016-12-30T04:18:26.424Z,35.4
2016-12-30T04:19:07.025Z,35.02
2016-12-30T04:19:47.624Z,35.3
2016-12-30T04:20:28.219Z,35.11
2016-12-30T04:21:08.806Z,35.3
2016-12-30T04:21:49.416Z,35.02
2016-12-30T04:22:30.010Z,35.21
2016-12-30T04:23:10.601Z,35.3
2016-12-30T04:23:51.207Z,35.5
2016-12-30T04:24:31.801Z,35.3
2016-12-30T04:25:12.401Z,35.3
2016-12-30T04:25:52.995Z,35.5
2016-12-30T04:26:33.598Z,35.5
2016-12-30T04:27:14.200Z,35.02
2016-12-30T04:27:54.798Z,35.59
2016-12-30T04:28:35.394Z,35.11
2016-12-30T04:29:15.983Z,35.21
2016-12-30T04:29:56.569Z,34.92
2016-12-30T04:30:37.155Z,35.02
2016-12-30T04:31:17.737Z,35.02
2016-12-30T04:31:58.349Z,35.02
2016-12-30T04:32:38.947Z,35.5
2016-12-30T04:33:19.534Z,35.4
2016-12-30T04:34:00.133Z,35.21
2016-12-30T04:34:40.735Z,35.11
2016-12-30T04:35:21.324Z,34.92
2016-12-30T04:36:01.910Z,34.92
2016-12-30T04:36:42.496Z,35.11
2016-12-30T04:37:23.099Z,34.92
2016-12-30T04:38:03.706Z,35.02
2016-12-30T04:38:44.302Z,35.02
2016-12-30T04:39:24.890Z,35.5
2016-12-30T04:40:05.479Z,35.3
2016-12-30T04:40:46.074Z,35.21
2016-12-30T04:41:26.663Z,35.21
2016-12-30T04:42:07.260Z,35.3
2016-12-30T04:42:47.849Z,34.92
2016-12-30T04:43:28.439Z,35.5
2016-12-30T04:44:09.053Z,34.92
2016-12-30T04:44:49.643Z,35.5
2016-12-30T04:45:30.224Z,35.4
2016-12-30T04:46:10.807Z,35.11
2016-12-30T04:46:51.405Z,35.11
2016-12-30T04:47:31.992Z,34.92
2016-12-30T04:48:12.576Z,35.21
2016-12-30T04:48:53.172Z,34.92
2016-12-30T04:49:33.764Z,34.92
2016-12-30T04:50:14.356Z,35.11
2016-12-30T04:50:54.938Z,35.11
2016-12-30T04:51:35.522Z,35.21
2016-12-30T04:52:16.118Z,35.21
2016-12-30T04:52:56.704Z,34.92
2016-12-30T04:53:37.281Z,35.21
2016-12-30T04:54:17.885Z,35.21
2016-12-30T04:54:58.487Z,35.21
2016-12-30T04:55:39.091Z,34.92
2016-12-30T04:56:19.679Z,35.21
2016-12-30T04:57:00.276Z,35.21
2016-12-30T04:57:40.859Z,34.92
2016-12-30T04:58:21.447Z,35.11
2016-12-30T04:59:02.033Z,35.21
2016-12-30T04:59:42.607Z,35.21
2016-12-30T05:00:23.186Z,35.21
2016-12-30T05:01:03.789Z,34.92
2016-12-30T05:01:44.365Z,35.3
2016-12-30T05:02:24.947Z,35.11
2016-12-30T05:03:05.543Z,35.11
2016-12-30T05:03:46.142Z,34.92
2016-12-30T05:04:26.727Z,35.02
2016-12-30T05:05:07.308Z,35.11
2016-12-30T05:05:47.898Z,34.92
2016-12-30T05:06:28.497Z,35.11
2016-12-30T05:07:09.091Z,35.02
2016-12-30T05:07:49.693Z,35.02
2016-12-30T05:08:30.275Z,35.3
2016-12-30T05:09:10.851Z,35.21
2016-12-30T05:09:51.430Z,34.92
2016-12-30T05:10:32.014Z,34.92
2016-12-30T05:11:12.616Z,35.3
2016-12-30T05:11:53.224Z,34.82
2016-12-30T05:12:33.818Z,35.11
2016-12-30T05:13:14.422Z,34.92
2016-12-30T05:13:55.033Z,34.92
2016-12-30T05:14:35.634Z,35.11
2016-12-30T05:15:16.216Z,35.21
2016-12-30T05:15:56.802Z,35.21
2016-12-30T05:16:37.392Z,34.82
2016-12-30T05:17:17.977Z,35.21
2016-12-30T05:17:58.587Z,34.92
2016-12-30T05:18:39.174Z,35.02
2016-12-30T05:19:19.791Z,35.02
2016-12-30T05:20:00.376Z,34.82
2016-12-30T05:20:40.962Z,35.11
2016-12-30T05:21:21.548Z,35.11
2016-12-30T05:22:02.130Z,35.11
2016-12-30T05:22:42.704Z,35.11
2016-12-30T05:23:23.298Z,35.11
2016-12-30T05:24:03.884Z,35.21
2016-12-30T05:24:44.468Z,34.92
2016-12-30T05:25:25.061Z,35.11
2016-12-30T05:26:05.643Z,35.11
2016-12-30T05:26:46.224Z,34.92
2016-12-30T05:27:26.813Z,35.02
2016-12-30T05:28:07.400Z,35.11
2016-12-30T05:28:47.981Z,35.11
2016-12-30T05:29:28.566Z,35.02
2016-12-30T05:30:09.153Z,35.3
2016-12-30T05:30:49.753Z,35.02
2016-12-30T05:31:30.333Z,35.3
2016-12-30T05:32:10.920Z,34.92
2016-12-30T05:32:51.495Z,34.82
2016-12-30T05:33:32.080Z,34.82
2016-12-30T05:34:12.667Z,34.82
2016-12-30T05:34:53.244Z,35.11
2016-12-30T05:35:33.837Z,35.21
2016-12-30T05:36:14.416Z,34.82
2016-12-30T05:36:55.031Z,34.72
2016-12-30T05:37:35.619Z,35.11
2016-12-30T05:38:16.210Z,34.72
2016-12-30T05:38:56.789Z,34.72
2016-12-30T05:39:37.371Z,34.72
2016-12-30T05:40:17.957Z,34.92
2016-12-30T05:40:58.542Z,34.92
2016-12-30T05:41:39.117Z,35.21
2016-12-30T05:42:19.704Z,35.21
2016-12-30T05:43:00.297Z,34.92
2016-12-30T05:43:40.880Z,34.92
2016-12-30T05:44:21.459Z,35.02
2016-12-30T05:45:02.040Z,34.92
2016-12-30T05:45:42.642Z,34.82
2016-12-30T05:46:23.246Z,34.72
2016-12-30T05:47:03.834Z,34.82
2016-12-30T05:47:44.416Z,35.02
2016-12-30T05:48:24.997Z,34.82
2016-12-30T05:49:05.582Z,34.72
2016-12-30T05:49:46.162Z,35.11
2016-12-30T05:50:26.751Z,34.92
2016-12-30T05:51:07.337Z,35.11
2016-12-30T05:51:47.939Z,35.21
2016-12-30T05:52:28.517Z,34.82
2016-12-30T05:53:09.110Z,34.92
2016-12-30T05:53:49.698Z,34.82
2016-12-30T05:54:30.277Z,34.82
2016-12-30T05:55:10.865Z,34.72
2016-12-30T05:55:51.465Z,34.63
2016-12-30T05:56:32.086Z,34.82
2016-12-30T05:57:12.699Z,34.92
2016-12-30T05:57:53.288Z,34.92
2016-12-30T05:58:33.901Z,35.02
2016-12-30T05:59:14.488Z,34.82
2016-12-30T05:59:55.083Z,34.82
2016-12-30T06:00:35.666Z,35.02
2016-12-30T06:01:16.270Z,34.82
2016-12-30T06:01:56.868Z,34.72
2016-12-30T06:02:37.481Z,35.02
2016-12-30T06:03:18.065Z,34.72
2016-12-30T06:03:58.648Z,35.21
2016-12-30T06:04:39.224Z,34.72
2016-12-30T06:05:19.824Z,34.92
2016-12-30T06:06:00.432Z,34.82
2016-12-30T06:06:41.027Z,34.82
2016-12-30T06:07:21.625Z,35.02
2016-12-30T06:08:02.225Z,34.92
2016-12-30T06:08:42.826Z,34.82
2016-12-30T06:09:23.422Z,34.82
2016-12-30T06:10:04.045Z,34.63
2016-12-30T06:10:44.632Z,34.82
2016-12-30T06:11:25.210Z,34.82
2016-12-30T06:12:05.789Z,34.82
2016-12-30T06:12:46.373Z,34.72
2016-12-30T06:13:26.967Z,34.92
2016-12-30T06:14:07.550Z,34.63
2016-12-30T06:14:48.142Z,34.72
2016-12-30T06:15:28.720Z,35.11
2016-12-30T06:16:09.310Z,34.72
2016-12-30T06:16:49.894Z,35.02
2016-12-30T06:17:30.484Z,34.82
2016-12-30T06:18:11.070Z,35.02
2016-12-30T06:18:51.656Z,34.92
2016-12-30T06:19:32.226Z,34.92
2016-12-30T06:20:12.821Z,34.82
2016-12-30T06:20:53.406Z,34.82
2016-12-30T06:21:34.002Z,34.72
2016-12-30T06:22:14.605Z,34.72
2016-12-30T06:22:55.185Z,34.82
2016-12-30T06:23:35.769Z,35.02
2016-12-30T06:24:16.356Z,34.82
2016-12-30T06:24:56.940Z,34.82
2016-12-30T06:25:37.529Z,34.53
2016-12-30T06:26:18.109Z,34.92
2016-12-30T06:26:58.686Z,34.82
2016-12-30T06:27:39.270Z,34.63
2016-12-30T06:28:19.856Z,34.82
2016-12-30T06:29:00.434Z,34.82
2016-12-30T06:29:41.029Z,34.92
2016-12-30T06:30:21.629Z,35.02
2016-12-30T06:31:02.224Z,34.82
2016-12-30T06:31:42.833Z,34.82
2016-12-30T06:32:23.432Z,34.82
2016-12-30T06:33:04.019Z,34.92
2016-12-30T06:33:44.631Z,34.92
2016-12-30T06:34:25.246Z,34.82
2016-12-30T06:35:05.852Z,34.72
2016-12-30T06:35:46.456Z,34.82
2016-12-30T06:36:27.052Z,34.92
2016-12-30T06:37:07.637Z,34.92
2016-12-30T06:37:48.208Z,34.92
2016-12-30T06:38:28.792Z,34.82
2016-12-30T06:39:09.394Z,34.72
2016-12-30T06:39:49.992Z,34.92
2016-12-30T06:40:30.583Z,34.72
2016-12-30T06:41:11.168Z,34.72
2016-12-30T06:41:51.753Z,34.63
2016-12-30T06:42:32.332Z,34.92
2016-12-30T06:43:12.917Z,34.63
2016-12-30T06:43:53.516Z,34.72
2016-12-30T06:44:34.106Z,34.72
2016-12-30T06:45:14.687Z,34.53
2016-12-30T06:45:55.312Z,34.72
2016-12-30T06:46:35.896Z,34.92
2016-12-30T06:47:16.492Z,34.92
2016-12-30T06:47:57.068Z,34.44
2016-12-30T06:48:37.653Z,34.44
2016-12-30T06:49:18.236Z,34.44
2016-12-30T06:49:58.819Z,34.82
2016-12-30T06:50:39.429Z,34.34
2016-12-30T06:51:20.022Z,34.53
2016-12-30T06:52:00.623Z,34.34
2016-12-30T06:52:41.201Z,34.82
2016-12-30T06:53:21.775Z,34.53
2016-12-30T06:54:02.366Z,34.92
2016-12-30T06:54:42.950Z,34.72
2016-12-30T06:55:23.569Z,34.63
2016-12-30T06:56:04.151Z,34.53
2016-12-30T06:56:44.745Z,34.82
2016-12-30T06:57:25.342Z,34.63
2016-12-30T06:58:05.939Z,34.92
2016-12-30T06:58:46.533Z,34.63
2016-12-30T06:59:27.137Z,34.82
2016-12-30T07:00:07.715Z,34.82
2016-12-30T07:00:48.305Z,34.92
2016-12-30T07:01:28.888Z,34.82
2016-12-30T07:02:09.485Z,34.92
2016-12-30T07:02:50.075Z,34.92
2016-12-30T07:03:30.650Z,34.82
2016-12-30T07:04:11.244Z,34.72
2016-12-30T07:04:51.824Z,34.82
2016-12-30T07:05:32.415Z,34.82
2016-12-30T07:06:13.008Z,34.82
2016-12-30T07:06:53.600Z,34.53
2016-12-30T07:07:34.180Z,34.53
2016-12-30T07:08:14.768Z,34.82
2016-12-30T07:08:55.362Z,34.53
2016-12-30T07:09:35.944Z,34.72
2016-12-30T07:10:16.524Z,34.92
2016-12-30T07:10:57.137Z,34.72
2016-12-30T07:11:37.755Z,34.82
2016-12-30T07:12:18.351Z,34.72
2016-12-30T07:12:58.939Z,34.82
2016-12-30T07:13:39.536Z,34.82
2016-12-30T07:14:20.133Z,34.82
2016-12-30T07:15:00.745Z,34.92
2016-12-30T07:15:41.331Z,34.72
2016-12-30T07:16:21.916Z,34.92
2016-12-30T07:17:02.518Z,34.82
2016-12-30T07:17:43.130Z,34.72
2016-12-30T07:18:23.711Z,34.92
2016-12-30T07:19:04.315Z,34.82
2016-12-30T07:19:44.902Z,34.82
2016-12-30T07:20:25.477Z,34.82
2016-12-30T07:21:06.068Z,34.82
2016-12-30T07:21:46.670Z,34.82
2016-12-30T07:22:27.261Z,35.02
2016-12-30T07:23:07.858Z,34.44
2016-12-30T07:23:48.452Z,34.05
2016-12-30T07:24:29.045Z,34.14
2016-12-30T07:25:09.638Z,33.57
2016-12-30T07:25:50.219Z,33.57
2016-12-30T07:26:30.824Z,33.37
2016-12-30T07:27:11.417Z,33.18
2016-12-30T07:27:52.016Z,33.09
2016-12-30T07:28:32.609Z,33.18
2016-12-30T07:29:13.192Z,33.18
2016-12-30T07:29:53.782Z,33.57
2016-12-30T07:30:34.377Z,33.37
2016-12-30T07:31:14.963Z,33.86
2016-12-30T07:31:55.558Z,34.34
2016-12-30T07:32:36.148Z,34.05
2016-12-30T07:33:16.745Z,34.24
2016-12-30T07:33:57.334Z,34.24
2016-12-30T07:34:37.912Z,35.02
2016-12-30T07:35:18.503Z,34.63
2016-12-30T07:35:59.098Z,34.44
2016-12-30T07:36:39.691Z,34.34
2016-12-30T07:37:20.303Z,34.44
2016-12-30T07:38:00.903Z,34.34
2016-12-30T07:38:41.508Z,34.34
2016-12-30T07:39:22.088Z,34.14
2016-12-30T07:40:02.688Z,34.24
2016-12-30T07:40:43.291Z,34.14
2016-12-30T07:41:23.877Z,33.57
2016-12-30T07:42:04.481Z,33.47
2016-12-30T07:42:45.072Z,33.47
2016-12-30T07:43:25.663Z,33.37
2016-12-30T07:44:06.267Z,33.09
2016-12-30T07:44:46.848Z,33.09
2016-12-30T07:45:27.445Z,32.51
2016-12-30T07:46:08.030Z,32.51
2016-12-30T07:46:48.633Z,32.99
2016-12-30T07:47:29.216Z,32.7
2016-12-30T07:48:09.812Z,32.79
2016-12-30T07:48:50.398Z,32.51
2016-12-30T07:49:30.986Z,32.89
2016-12-30T07:50:11.594Z,32.7
2016-12-30T07:50:52.190Z,32.51
2016-12-30T07:51:32.793Z,32.99
2016-12-30T07:52:13.389Z,32.51
2016-12-30T07:52:53.980Z,32.79
2016-12-30T07:53:34.561Z,33.18
2016-12-30T07:54:15.149Z,32.99
2016-12-30T07:54:55.734Z,33.18
2016-12-30T07:55:36.319Z,33.28
2016-12-30T07:56:16.920Z,33.57
2016-12-30T07:56:57.505Z,32.7
2016-12-30T07:57:38.103Z,32.89
2016-12-30T07:58:18.705Z,33.09
2016-12-30T07:58:59.286Z,33.18
2016-12-30T07:59:39.877Z,32.51
2016-12-30T08:00:20.478Z,32.31
2016-12-30T08:01:01.102Z,33.09
2016-12-30T08:01:41.750Z,33.18
2016-12-30T08:02:22.332Z,33.09
2016-12-30T08:03:02.927Z,33.09
2016-12-30T08:03:43.517Z,32.99
2016-12-30T08:04:24.102Z,32.99
2016-12-30T08:05:04.712Z,32.89
2016-12-30T08:05:45.308Z,33.09
2016-12-30T08:06:25.916Z,33.18
2016-12-30T08:07:06.523Z,32.99
2016-12-30T08:07:47.092Z,33.09
2016-12-30T08:08:27.670Z,33.18
2016-12-30T08:09:08.255Z,33.18
2016-12-30T08:09:48.849Z,33.18
2016-12-30T08:10:29.447Z,33.47
2016-12-30T08:11:10.072Z,33.07
2016-12-30T08:11:50.664Z,33.28
2016-12-30T08:12:31.245Z,32.99
2016-12-30T08:13:11.848Z,33.37
2016-12-30T08:13:52.432Z,33.28
2016-12-30T08:14:33.018Z,33.47
2016-12-30T08:15:13.631Z,33.09
2016-12-30T08:15:54.215Z,33.28
2016-12-30T08:16:34.810Z,33.37
2016-12-30T08:17:15.415Z,33.18
2016-12-30T08:17:56.004Z,33.09
2016-12-30T08:18:36.599Z,33.18
2016-12-30T08:19:17.216Z,33.09
2016-12-30T08:19:57.824Z,33.28
2016-12-30T08:20:38.424Z,33.47
2016-12-30T08:21:19.009Z,32.99
2016-12-30T08:21:59.595Z,33.18
2016-12-30T08:22:40.192Z,33.37
2016-12-30T08:23:20.793Z,33.09
2016-12-30T08:24:01.420Z,33.09
2016-12-30T08:24:42.003Z,32.99
2016-12-30T08:25:22.589Z,32.89
2016-12-30T08:26:03.174Z,33.09
2016-12-30T08:26:43.763Z,32.99
2016-12-30T08:27:24.365Z,33.09
2016-12-30T08:28:04.946Z,33.37
2016-12-30T08:28:45.536Z,33.18
2016-12-30T08:29:26.140Z,33.18
2016-12-30T08:30:06.736Z,32.99
2016-12-30T08:30:47.372Z,33.09
2016-12-30T08:31:27.964Z,33.09
2016-12-30T08:32:08.546Z,33.09
2016-12-30T08:32:49.138Z,32.99
2016-12-30T08:33:29.727Z,33.18
2016-12-30T08:34:10.324Z,32.99
2016-12-30T08:34:50.930Z,32.99
2016-12-30T08:35:31.523Z,33.28
2016-12-30T08:36:12.117Z,33.28
2016-12-30T08:36:52.713Z,32.99
2016-12-30T08:37:33.314Z,32.99
2016-12-30T08:38:13.915Z,32.89
2016-12-30T08:38:54.497Z,32.89
2016-12-30T08:39:35.082Z,33.18
2016-12-30T08:40:15.689Z,33.09
2016-12-30T08:40:56.300Z,32.99
2016-12-30T08:41:36.884Z,32.51
2016-12-30T08:42:17.482Z,32.21
2016-12-30T08:42:58.080Z,32.68
2016-12-30T08:43:38.688Z,32.99
2016-12-30T08:44:19.294Z,32.99
2016-12-30T08:44:59.872Z,32.79
2016-12-30T08:45:40.470Z,32.99
2016-12-30T08:46:21.067Z,33.18
2016-12-30T08:47:01.665Z,33.28
2016-12-30T08:47:42.252Z,32.99